Portada
METAR-TAF:

METAR-TAF

Aeropuertos :

Aeropuerto Internacional Scarlett Martínez

Río Hato, Panamá

latitud: 08-22-33N, longitud: 080-07-40W, altitud: 32 m

Observación

El informe se hizo hace 21 minutos, a las 17:00 UTC
Viento 10 kt del sur-sureste
Temperatura 29°C
Humedad 74%
Presión 1011 hPa
Visibilidad 10 km o más
Nubes dispersas a una altura de 2500 ft, Cumulus congestus.

METAR: MPSM 041700Z 16010KT 9999 SCT025TCU 29/24 Q1011

Hora: 12:21 (17:21 UTC)

Pronóstico

El informe se hizo hace 6 horas y 21 minutos, a las 11:00 UTC
Pronóstico válido del 04 a las 12 UTC al 05 a las 18 UTC
Viento 7 kt del norte-noroeste
Visibilidad 10 km o más
Nubes dispersas a una altura de 1800 ft
Temporalmente
del 04 a las 16 UTC al 04 a las 19 UTC
Viento 5 kt del sur-sureste
Temporalmente
del 04 a las 19 UTC al 04 a las 23 UTC
Viento 8 kt del norte-noreste

TAF: MPSM 041100Z 0412/0518 33007KT 9999 SCT018 TEMPO 0416/0419 15005KT TEMPO 0419/0423 02008KT

Observaciones y pronósticos meteorológicos de más de 4000 aeropuertos (mensajes METAR y TAF).

Los puntos amarillos y rojos representan las estaciones disponibles.

Ponga el ratón en el punto deseado para ver el nombre de la estación.

Haga clic para ver las observaciones y los pronósticos meteorológicos.

Para cambiar el mapa : haga clic en los botones verdes con una cruz de color negro para hacer un zoom, en el botón verde con un guión para alejar o en las flechas verdes para mapas adyacentes.


METAR-TAF: